Terminal Aerodrome Forecast
Issued by NWS

Home | Current Version | Previous Version | Text Only | Print | Product List | Glossary On
Versions: 1 2 3 4 5 6 7 8 9 10 11 12 13 14 15 16 17 18 19 20
000
FTAK31 PANC 212147 AAA
TAFACD
TAF AMD
PACD 212147Z 2122/2218 32009KT 5SM BR SCT002 OVC008
      TEMPO 2122/2124 2SM BR OVC002
     FM220000 31008KT P6SM VCFG SCT003 BKN010
     FM220800 30007KT 2SM BR OVC004=

USA.gov is the U.S. government's official web portal to all federal, state and local government web resources and services.